sensor_id;sensor_type;location;lat;lon;timestamp;temperature;humidity
4673;DHT22;61885;53.560;9.940;2022-09-03T00:01:00;16.30;1.00
4673;DHT22;61885;53.560;9.940;2022-09-03T00:03:38;16.30;1.00
4673;DHT22;61885;53.560;9.940;2022-09-03T00:06:13;16.30;1.00
4673;DHT22;61885;53.560;9.940;2022-09-03T00:08:50;16.20;1.00
4673;DHT22;61885;53.560;9.940;2022-09-03T00:11:26;16.20;1.00
4673;DHT22;61885;53.560;9.940;2022-09-03T00:14:00;16.20;1.00
4673;DHT22;61885;53.560;9.940;2022-09-03T00:16:42;16.10;1.00
4673;DHT22;61885;53.560;9.940;2022-09-03T00:19:16;16.00;1.00
4673;DHT22;61885;53.560;9.940;2022-09-03T00:21:50;16.00;1.00
4673;DHT22;61885;53.560;9.940;2022-09-03T00:24:22;16.00;1.00
4673;DHT22;61885;53.560;9.940;2022-09-03T00:26:59;16.10;1.00
4673;DHT22;61885;53.560;9.940;2022-09-03T00:29:35;16.00;1.00
4673;DHT22;61885;53.560;9.940;2022-09-03T00:32:10;16.00;1.00
4673;DHT22;61885;53.560;9.940;2022-09-03T00:34:45;16.00;1.00
4673;DHT22;61885;53.560;9.940;2022-09-03T00:37:17;16.00;1.00
4673;DHT22;61885;53.560;9.940;2022-09-03T00:39:47;16.00;1.00
4673;DHT22;61885;53.560;9.940;2022-09-03T00:42:33;16.00;1.00
4673;DHT22;61885;53.560;9.940;2022-09-03T00:45:14;15.90;1.00
4673;DHT22;61885;53.560;9.940;2022-09-03T00:47:56;15.90;1.00
4673;DHT22;61885;53.560;9.940;2022-09-03T00:50:40;15.90;1.00
4673;DHT22;61885;53.560;9.940;2022-09-03T00:53:18;15.90;1.00
4673;DHT22;61885;53.560;9.940;2022-09-03T00:55:57;15.90;1.00
4673;DHT22;61885;53.560;9.940;2022-09-03T00:58:43;15.90;1.00
4673;DHT22;61885;53.560;9.940;2022-09-03T01:01:20;15.90;1.00
4673;DHT22;61885;53.560;9.940;2022-09-03T01:03:57;15.90;1.00
4673;DHT22;61885;53.560;9.940;2022-09-03T01:06:39;15.90;1.00
4673;DHT22;61885;53.560;9.940;2022-09-03T01:09:23;15.80;1.00
4673;DHT22;61885;53.560;9.940;2022-09-03T01:12:02;15.80;1.00
4673;DHT22;61885;53.560;9.940;2022-09-03T01:14:45;15.80;1.00
4673;DHT22;61885;53.560;9.940;2022-09-03T01:17:22;15.80;1.00
4673;DHT22;61885;53.560;9.940;2022-09-03T01:20:11;15.80;1.00
4673;DHT22;61885;53.560;9.940;2022-09-03T01:23:13;15.70;1.00
4673;DHT22;61885;53.560;9.940;2022-09-03T01:25:52;15.60;1.00
4673;DHT22;61885;53.560;9.940;2022-09-03T01:28:41;15.60;1.00
4673;DHT22;61885;53.560;9.940;2022-09-03T01:31:21;15.60;1.00
4673;DHT22;61885;53.560;9.940;2022-09-03T01:34:00;15.60;1.00
4673;DHT22;61885;53.560;9.940;2022-09-03T01:36:36;15.50;1.00
4673;DHT22;61885;53.560;9.940;2022-09-03T01:39:10;15.50;1.00
4673;DHT22;61885;53.560;9.940;2022-09-03T01:41:46;15.50;1.00
4673;DHT22;61885;53.560;9.940;2022-09-03T01:47:48;15.50;1.00
4673;DHT22;61885;53.560;9.940;2022-09-03T01:50:28;15.50;1.00
4673;DHT22;61885;53.560;9.940;2022-09-03T01:53:08;15.40;1.00
4673;DHT22;61885;53.560;9.940;2022-09-03T01:55:45;15.40;1.00
4673;DHT22;61885;53.560;9.940;2022-09-03T01:58:27;15.40;1.00
4673;DHT22;61885;53.560;9.940;2022-09-03T02:01:05;15.40;1.00
4673;DHT22;61885;53.560;9.940;2022-09-03T02:03:38;15.30;1.00
4673;DHT22;61885;53.560;9.940;2022-09-03T02:06:10;15.30;1.00
4673;DHT22;61885;53.560;9.940;2022-09-03T02:08:40;15.30;1.00
4673;DHT22;61885;53.560;9.940;2022-09-03T02:11:10;15.20;1.00
4673;DHT22;61885;53.560;9.940;2022-09-03T02:13:41;15.20;1.00
4673;DHT22;61885;53.560;9.940;2022-09-03T02:16:17;15.30;1.00
4673;DHT22;61885;53.560;9.940;2022-09-03T02:18:50;15.30;1.00
4673;DHT22;61885;53.560;9.940;2022-09-03T02:21:22;15.30;1.00
4673;DHT22;61885;53.560;9.940;2022-09-03T02:23:52;15.20;1.00
4673;DHT22;61885;53.560;9.940;2022-09-03T02:26:23;15.20;1.00
4673;DHT22;61885;53.560;9.940;2022-09-03T02:28:53;15.20;1.00
4673;DHT22;61885;53.560;9.940;2022-09-03T02:31:27;15.20;1.00
4673;DHT22;61885;53.560;9.940;2022-09-03T02:33:58;15.20;1.00
4673;DHT22;61885;53.560;9.940;2022-09-03T02:36:30;15.20;1.00
4673;DHT22;61885;53.560;9.940;2022-09-03T02:39:00;15.10;1.00
4673;DHT22;61885;53.560;9.940;2022-09-03T02:41:30;15.10;1.00
4673;DHT22;61885;53.560;9.940;2022-09-03T02:44:03;15.10;1.00
4673;DHT22;61885;53.560;9.940;2022-09-03T02:46:39;15.10;1.00
4673;DHT22;61885;53.560;9.940;2022-09-03T02:49:09;15.10;1.00
4673;DHT22;61885;53.560;9.940;2022-09-03T02:51:41;15.10;1.00
4673;DHT22;61885;53.560;9.940;2022-09-03T02:54:11;15.10;1.00
4673;DHT22;61885;53.560;9.940;2022-09-03T02:56:41;14.90;1.00
4673;DHT22;61885;53.560;9.940;2022-09-03T02:59:14;15.00;1.00
4673;DHT22;61885;53.560;9.940;2022-09-03T03:01:46;15.00;1.00
4673;DHT22;61885;53.560;9.940;2022-09-03T03:04:15;15.00;1.00
4673;DHT22;61885;53.560;9.940;2022-09-03T03:06:45;15.00;1.00
4673;DHT22;61885;53.560;9.940;2022-09-03T03:09:16;15.00;1.00
4673;DHT22;61885;53.560;9.940;2022-09-03T03:11:46;14.90;1.00
4673;DHT22;61885;53.560;9.940;2022-09-03T03:14:16;15.00;1.00
4673;DHT22;61885;53.560;9.940;2022-09-03T03:16:48;15.10;1.00
4673;DHT22;61885;53.560;9.940;2022-09-03T03:19:21;15.00;1.00
4673;DHT22;61885;53.560;9.940;2022-09-03T03:21:51;15.00;1.00
4673;DHT22;61885;53.560;9.940;2022-09-03T03:24:21;15.00;1.00
4673;DHT22;61885;53.560;9.940;2022-09-03T03:26:50;15.00;1.00
4673;DHT22;61885;53.560;9.940;2022-09-03T03:29:23;15.00;1.00
4673;DHT22;61885;53.560;9.940;2022-09-03T03:31:56;15.00;1.00
4673;DHT22;61885;53.560;9.940;2022-09-03T03:34:26;14.90;1.00
4673;DHT22;61885;53.560;9.940;2022-09-03T03:36:55;14.90;1.00
4673;DHT22;61885;53.560;9.940;2022-09-03T03:39:25;14.90;1.00
4673;DHT22;61885;53.560;9.940;2022-09-03T03:41:55;14.90;1.00
4673;DHT22;61885;53.560;9.940;2022-09-03T03:44:24;14.90;1.00
4673;DHT22;61885;53.560;9.940;2022-09-03T03:46:57;14.90;1.00
4673;DHT22;61885;53.560;9.940;2022-09-03T03:49:27;14.90;1.00
4673;DHT22;61885;53.560;9.940;2022-09-03T03:51:56;14.90;1.00
4673;DHT22;61885;53.560;9.940;2022-09-03T03:54:28;14.90;1.00
4673;DHT22;61885;53.560;9.940;2022-09-03T03:56:58;14.80;1.00
4673;DHT22;61885;53.560;9.940;2022-09-03T03:59:27;14.90;1.00
4673;DHT22;61885;53.560;9.940;2022-09-03T04:01:59;14.90;1.00
4673;DHT22;61885;53.560;9.940;2022-09-03T04:04:29;14.90;1.00
4673;DHT22;61885;53.560;9.940;2022-09-03T04:06:58;14.90;1.00
4673;DHT22;61885;53.560;9.940;2022-09-03T04:09:28;14.80;1.00
4673;DHT22;61885;53.560;9.940;2022-09-03T04:11:57;14.80;1.00
4673;DHT22;61885;53.560;9.940;2022-09-03T04:14:28;14.80;1.00
4673;DHT22;61885;53.560;9.940;2022-09-03T04:17:00;14.70;1.00
4673;DHT22;61885;53.560;9.940;2022-09-03T04:19:30;14.60;1.00
4673;DHT22;61885;53.560;9.940;2022-09-03T04:21:59;14.70;1.00
4673;DHT22;61885;53.560;9.940;2022-09-03T04:24:29;14.80;1.00
4673;DHT22;61885;53.560;9.940;2022-09-03T04:26:59;14.60;1.00
4673;DHT22;61885;53.560;9.940;2022-09-03T04:29:28;14.60;1.00
4673;DHT22;61885;53.560;9.940;2022-09-03T04:32:02;14.60;1.00
4673;DHT22;61885;53.560;9.940;2022-09-03T04:34:44;14.60;1.00
4673;DHT22;61885;53.560;9.940;2022-09-03T04:37:13;14.60;1.00
4673;DHT22;61885;53.560;9.940;2022-09-03T04:39:45;14.90;1.00
4673;DHT22;61885;53.560;9.940;2022-09-03T04:42:15;15.00;1.00
4673;DHT22;61885;53.560;9.940;2022-09-03T04:44:45;15.00;1.00
4673;DHT22;61885;53.560;9.940;2022-09-03T04:47:17;14.80;1.00
4673;DHT22;61885;53.560;9.940;2022-09-03T04:52:16;14.70;1.00
4673;DHT22;61885;53.560;9.940;2022-09-03T04:54:46;14.60;1.00
4673;DHT22;61885;53.560;9.940;2022-09-03T04:57:16;14.50;1.00
4673;DHT22;61885;53.560;9.940;2022-09-03T04:59:45;14.50;1.00
4673;DHT22;61885;53.560;9.940;2022-09-03T05:02:17;14.60;1.00
4673;DHT22;61885;53.560;9.940;2022-09-03T05:04:47;14.50;1.00
4673;DHT22;61885;53.560;9.940;2022-09-03T05:07:17;14.60;1.00
4673;DHT22;61885;53.560;9.940;2022-09-03T05:09:47;15.30;1.00
4673;DHT22;61885;53.560;9.940;2022-09-03T05:12:17;14.50;1.00
4673;DHT22;61885;53.560;9.940;2022-09-03T05:14:49;15.00;1.00
4673;DHT22;61885;53.560;9.940;2022-09-03T05:17:21;14.50;1.00
4673;DHT22;61885;53.560;9.940;2022-09-03T05:19:50;14.50;1.00
4673;DHT22;61885;53.560;9.940;2022-09-03T05:22:20;14.40;1.00
4673;DHT22;61885;53.560;9.940;2022-09-03T05:24:50;14.50;1.00
4673;DHT22;61885;53.560;9.940;2022-09-03T05:27:21;14.50;1.00
4673;DHT22;61885;53.560;9.940;2022-09-03T05:29:51;14.50;1.00
4673;DHT22;61885;53.560;9.940;2022-09-03T05:32:23;14.50;1.00
4673;DHT22;61885;53.560;9.940;2022-09-03T05:34:54;16.40;1.00
4673;DHT22;61885;53.560;9.940;2022-09-03T05:37:24;14.90;1.00
4673;DHT22;61885;53.560;9.940;2022-09-03T05:39:54;14.60;1.00
4673;DHT22;61885;53.560;9.940;2022-09-03T05:42:23;14.70;1.00
4673;DHT22;61885;53.560;9.940;2022-09-03T05:44:53;14.70;1.00
4673;DHT22;61885;53.560;9.940;2022-09-03T05:47:26;14.60;1.00
4673;DHT22;61885;53.560;9.940;2022-09-03T05:49:58;14.70;1.00
4673;DHT22;61885;53.560;9.940;2022-09-03T05:54:58;14.70;1.00
4673;DHT22;61885;53.560;9.940;2022-09-03T05:57:27;14.80;1.00
4673;DHT22;61885;53.560;9.940;2022-09-03T05:59:57;14.80;1.00
4673;DHT22;61885;53.560;9.940;2022-09-03T06:02:30;14.90;1.00
4673;DHT22;61885;53.560;9.940;2022-09-03T06:04:59;14.90;1.00
4673;DHT22;61885;53.560;9.940;2022-09-03T06:07:29;15.00;1.00
4673;DHT22;61885;53.560;9.940;2022-09-03T06:09:59;14.90;1.00
4673;DHT22;61885;53.560;9.940;2022-09-03T06:12:30;14.90;1.00
4673;DHT22;61885;53.560;9.940;2022-09-03T06:15:01;15.00;1.00
4673;DHT22;61885;53.560;9.940;2022-09-03T06:17:36;15.10;1.00
4673;DHT22;61885;53.560;9.940;2022-09-03T06:20:07;15.20;1.00
4673;DHT22;61885;53.560;9.940;2022-09-03T06:22:37;15.20;1.00
4673;DHT22;61885;53.560;9.940;2022-09-03T06:25:07;15.10;1.00
4673;DHT22;61885;53.560;9.940;2022-09-03T06:27:37;15.20;1.00
4673;DHT22;61885;53.560;9.940;2022-09-03T06:30:08;15.20;1.00
4673;DHT22;61885;53.560;9.940;2022-09-03T06:32:45;15.30;1.00
4673;DHT22;61885;53.560;9.940;2022-09-03T06:35:15;17.40;1.00
4673;DHT22;61885;53.560;9.940;2022-09-03T06:37:46;15.40;1.00
4673;DHT22;61885;53.560;9.940;2022-09-03T06:40:17;15.50;1.00
4673;DHT22;61885;53.560;9.940;2022-09-03T06:42:55;15.50;1.00
4673;DHT22;61885;53.560;9.940;2022-09-03T06:45:29;15.60;1.00
4673;DHT22;61885;53.560;9.940;2022-09-03T06:48:04;15.60;1.00
4673;DHT22;61885;53.560;9.940;2022-09-03T06:50:34;15.60;1.00
4673;DHT22;61885;53.560;9.940;2022-09-03T06:53:03;15.70;1.00
4673;DHT22;61885;53.560;9.940;2022-09-03T06:55:33;15.80;1.00
4673;DHT22;61885;53.560;9.940;2022-09-03T06:58:05;15.80;1.00
4673;DHT22;61885;53.560;9.940;2022-09-03T07:00:36;18.10;1.00
4673;DHT22;61885;53.560;9.940;2022-09-03T07:03:08;15.90;1.00
4673;DHT22;61885;53.560;9.940;2022-09-03T07:05:38;16.00;1.00
4673;DHT22;61885;53.560;9.940;2022-09-03T07:08:09;16.50;1.00
4673;DHT22;61885;53.560;9.940;2022-09-03T07:10:39;16.10;1.00
4673;DHT22;61885;53.560;9.940;2022-09-03T07:13:09;16.10;1.00
4673;DHT22;61885;53.560;9.940;2022-09-03T07:15:39;16.20;1.00
4673;DHT22;61885;53.560;9.940;2022-09-03T07:18:11;16.20;1.00
4673;DHT22;61885;53.560;9.940;2022-09-03T07:20:41;16.20;1.00
4673;DHT22;61885;53.560;9.940;2022-09-03T07:23:11;16.40;1.00
4673;DHT22;61885;53.560;9.940;2022-09-03T07:25:41;16.40;1.00
4673;DHT22;61885;53.560;9.940;2022-09-03T07:28:11;16.50;1.00
4673;DHT22;61885;53.560;9.940;2022-09-03T07:30:42;16.60;1.00
4673;DHT22;61885;53.560;9.940;2022-09-03T07:33:14;16.50;1.00
4673;DHT22;61885;53.560;9.940;2022-09-03T07:35:44;17.80;1.00
4673;DHT22;61885;53.560;9.940;2022-09-03T07:38:18;18.30;1.00
4673;DHT22;61885;53.560;9.940;2022-09-03T07:40:56;17.60;1.00
4673;DHT22;61885;53.560;9.940;2022-09-03T07:43:26;17.10;1.00
4673;DHT22;61885;53.560;9.940;2022-09-03T07:45:57;17.50;1.00
4673;DHT22;61885;53.560;9.940;2022-09-03T07:48:29;17.60;1.00
4673;DHT22;61885;53.560;9.940;2022-09-03T07:51:03;19.80;1.00
4673;DHT22;61885;53.560;9.940;2022-09-03T07:53:32;17.60;1.00
4673;DHT22;61885;53.560;9.940;2022-09-03T07:56:04;17.60;1.00
4673;DHT22;61885;53.560;9.940;2022-09-03T07:58:36;17.70;1.00
4673;DHT22;61885;53.560;9.940;2022-09-03T08:01:08;18.40;1.00
4673;DHT22;61885;53.560;9.940;2022-09-03T08:03:43;17.90;1.00
4673;DHT22;61885;53.560;9.940;2022-09-03T08:06:14;18.10;1.00
4673;DHT22;61885;53.560;9.940;2022-09-03T08:08:47;18.20;1.00
4673;DHT22;61885;53.560;9.940;2022-09-03T08:11:18;18.10;1.00
4673;DHT22;61885;53.560;9.940;2022-09-03T08:13:54;18.30;1.00
4673;DHT22;61885;53.560;9.940;2022-09-03T08:16:27;18.30;1.00
4673;DHT22;61885;53.560;9.940;2022-09-03T08:19:00;18.50;1.00
4673;DHT22;61885;53.560;9.940;2022-09-03T08:21:30;18.60;1.00
4673;DHT22;61885;53.560;9.940;2022-09-03T08:24:00;18.70;1.00
4673;DHT22;61885;53.560;9.940;2022-09-03T08:26:33;18.80;1.00
4673;DHT22;61885;53.560;9.940;2022-09-03T08:29:03;18.80;1.00
4673;DHT22;61885;53.560;9.940;2022-09-03T08:31:36;18.80;1.00
4673;DHT22;61885;53.560;9.940;2022-09-03T08:34:12;18.90;1.00
4673;DHT22;61885;53.560;9.940;2022-09-03T08:36:43;18.90;1.00
4673;DHT22;61885;53.560;9.940;2022-09-03T08:39:14;18.80;1.00
4673;DHT22;61885;53.560;9.940;2022-09-03T08:41:59;18.80;1.00
4673;DHT22;61885;53.560;9.940;2022-09-03T08:44:39;18.60;1.00
4673;DHT22;61885;53.560;9.940;2022-09-03T08:47:16;18.50;1.00
4673;DHT22;61885;53.560;9.940;2022-09-03T08:49:54;19.30;1.00
4673;DHT22;61885;53.560;9.940;2022-09-03T08:52:28;18.60;1.00
4673;DHT22;61885;53.560;9.940;2022-09-03T08:55:15;18.70;1.00
4673;DHT22;61885;53.560;9.940;2022-09-03T08:57:47;19.40;1.00
4673;DHT22;61885;53.560;9.940;2022-09-03T09:00:17;19.00;1.00
4673;DHT22;61885;53.560;9.940;2022-09-03T09:02:59;19.10;1.00
4673;DHT22;61885;53.560;9.940;2022-09-03T09:05:42;19.30;1.00
4673;DHT22;61885;53.560;9.940;2022-09-03T09:08:20;19.30;1.00
4673;DHT22;61885;53.560;9.940;2022-09-03T09:11:00;19.30;1.00
4673;DHT22;61885;53.560;9.940;2022-09-03T09:13:36;19.30;1.00
4673;DHT22;61885;53.560;9.940;2022-09-03T09:16:12;19.50;1.00
4673;DHT22;61885;53.560;9.940;2022-09-03T09:18:55;19.60;1.00
4673;DHT22;61885;53.560;9.940;2022-09-03T09:21:36;19.80;1.00
4673;DHT22;61885;53.560;9.940;2022-09-03T09:24:18;20.60;1.00
4673;DHT22;61885;53.560;9.940;2022-09-03T09:26:55;19.80;1.00
4673;DHT22;61885;53.560;9.940;2022-09-03T09:29:29;19.90;1.00
4673;DHT22;61885;53.560;9.940;2022-09-03T09:32:00;19.70;1.00
4673;DHT22;61885;53.560;9.940;2022-09-03T09:34:33;19.80;1.00
4673;DHT22;61885;53.560;9.940;2022-09-03T09:37:09;19.90;1.00
4673;DHT22;61885;53.560;9.940;2022-09-03T09:39:53;20.00;1.00
4673;DHT22;61885;53.560;9.940;2022-09-03T09:42:25;20.00;1.00
4673;DHT22;61885;53.560;9.940;2022-09-03T09:45:08;20.10;1.00
4673;DHT22;61885;53.560;9.940;2022-09-03T09:47:39;20.20;1.00
4673;DHT22;61885;53.560;9.940;2022-09-03T09:50:16;20.30;1.00
4673;DHT22;61885;53.560;9.940;2022-09-03T09:52:59;20.30;1.00
4673;DHT22;61885;53.560;9.940;2022-09-03T09:55:29;20.40;1.00
4673;DHT22;61885;53.560;9.940;2022-09-03T09:58:06;20.40;1.00
4673;DHT22;61885;53.560;9.940;2022-09-03T10:00:37;20.60;1.00
4673;DHT22;61885;53.560;9.940;2022-09-03T10:03:10;20.70;1.00
4673;DHT22;61885;53.560;9.940;2022-09-03T10:05:40;20.80;1.00
4673;DHT22;61885;53.560;9.940;2022-09-03T10:08:20;20.80;1.00
4673;DHT22;61885;53.560;9.940;2022-09-03T10:10:50;21.00;1.00
4673;DHT22;61885;53.560;9.940;2022-09-03T10:13:25;20.80;1.00
4673;DHT22;61885;53.560;9.940;2022-09-03T10:15:59;20.80;1.00
4673;DHT22;61885;53.560;9.940;2022-09-03T10:18:39;20.80;1.00
4673;DHT22;61885;53.560;9.940;2022-09-03T10:21:13;20.90;1.00
4673;DHT22;61885;53.560;9.940;2022-09-03T10:23:53;20.90;1.00
4673;DHT22;61885;53.560;9.940;2022-09-03T10:26:25;20.90;1.00
4673;DHT22;61885;53.560;9.940;2022-09-03T10:28:58;20.90;1.00
4673;DHT22;61885;53.560;9.940;2022-09-03T10:31:39;20.80;1.00
4673;DHT22;61885;53.560;9.940;2022-09-03T10:34:15;20.90;1.00
4673;DHT22;61885;53.560;9.940;2022-09-03T10:36:52;20.80;1.00
4673;DHT22;61885;53.560;9.940;2022-09-03T10:39:38;20.80;1.00
4673;DHT22;61885;53.560;9.940;2022-09-03T10:42:24;20.80;1.00
4673;DHT22;61885;53.560;9.940;2022-09-03T10:45:07;20.90;1.00
4673;DHT22;61885;53.560;9.940;2022-09-03T10:50:46;21.00;1.00
4673;DHT22;61885;53.560;9.940;2022-09-03T10:53:34;21.00;1.00
4673;DHT22;61885;53.560;9.940;2022-09-03T10:56:14;21.00;1.00
4673;DHT22;61885;53.560;9.940;2022-09-03T10:58:58;20.90;1.00
4673;DHT22;61885;53.560;9.940;2022-09-03T11:01:39;20.90;1.00
4673;DHT22;61885;53.560;9.940;2022-09-03T11:04:19;21.00;1.00
4673;DHT22;61885;53.560;9.940;2022-09-03T11:06:56;20.80;1.00
4673;DHT22;61885;53.560;9.940;2022-09-03T11:09:32;20.70;1.00
4673;DHT22;61885;53.560;9.940;2022-09-03T11:12:10;20.80;1.00
4673;DHT22;61885;53.560;9.940;2022-09-03T11:14:45;20.90;1.00
4673;DHT22;61885;53.560;9.940;2022-09-03T11:17:21;21.10;1.00
4673;DHT22;61885;53.560;9.940;2022-09-03T11:19:57;21.00;1.00
4673;DHT22;61885;53.560;9.940;2022-09-03T11:22:32;21.20;1.00
4673;DHT22;61885;53.560;9.940;2022-09-03T11:25:05;21.30;1.00
4673;DHT22;61885;53.560;9.940;2022-09-03T11:27:51;21.30;1.00
4673;DHT22;61885;53.560;9.940;2022-09-03T11:30:25;23.80;1.00
4673;DHT22;61885;53.560;9.940;2022-09-03T11:32:59;21.40;1.00
4673;DHT22;61885;53.560;9.940;2022-09-03T11:35:39;21.60;1.00
4673;DHT22;61885;53.560;9.940;2022-09-03T11:38:20;21.80;1.00
4673;DHT22;61885;53.560;9.940;2022-09-03T11:40:59;22.00;1.00
4673;DHT22;61885;53.560;9.940;2022-09-03T11:43:32;21.80;1.00
4673;DHT22;61885;53.560;9.940;2022-09-03T11:46:05;21.70;1.00
4673;DHT22;61885;53.560;9.940;2022-09-03T11:48:40;21.50;1.00
4673;DHT22;61885;53.560;9.940;2022-09-03T11:51:29;21.50;1.00
4673;DHT22;61885;53.560;9.940;2022-09-03T11:54:03;21.70;1.00
4673;DHT22;61885;53.560;9.940;2022-09-03T11:56:34;21.90;1.00
4673;DHT22;61885;53.560;9.940;2022-09-03T11:59:16;21.80;1.00
4673;DHT22;61885;53.560;9.940;2022-09-03T12:01:50;21.70;1.00
4673;DHT22;61885;53.560;9.940;2022-09-03T12:04:24;21.50;1.00
4673;DHT22;61885;53.560;9.940;2022-09-03T12:07:11;21.50;1.00
4673;DHT22;61885;53.560;9.940;2022-09-03T12:09:59;21.60;1.00
4673;DHT22;61885;53.560;9.940;2022-09-03T12:12:48;21.80;1.00
4673;DHT22;61885;53.560;9.940;2022-09-03T12:18:24;22.00;1.00
4673;DHT22;61885;53.560;9.940;2022-09-03T12:21:03;22.00;1.00
4673;DHT22;61885;53.560;9.940;2022-09-03T12:23:39;22.00;1.00
4673;DHT22;61885;53.560;9.940;2022-09-03T12:26:12;22.00;1.00
4673;DHT22;61885;53.560;9.940;2022-09-03T12:28:44;22.10;1.00
4673;DHT22;61885;53.560;9.940;2022-09-03T12:31:19;22.30;1.00
4673;DHT22;61885;53.560;9.940;2022-09-03T12:33:52;22.20;1.00
4673;DHT22;61885;53.560;9.940;2022-09-03T12:36:25;22.40;1.00
4673;DHT22;61885;53.560;9.940;2022-09-03T12:38:55;22.40;1.00
4673;DHT22;61885;53.560;9.940;2022-09-03T12:41:35;22.30;1.00
4673;DHT22;61885;53.560;9.940;2022-09-03T12:44:05;22.20;1.00
4673;DHT22;61885;53.560;9.940;2022-09-03T12:46:37;22.30;1.00
4673;DHT22;61885;53.560;9.940;2022-09-03T12:49:07;22.30;1.00
4673;DHT22;61885;53.560;9.940;2022-09-03T12:51:43;22.50;1.00
4673;DHT22;61885;53.560;9.940;2022-09-03T12:54:13;22.50;1.00
4673;DHT22;61885;53.560;9.940;2022-09-03T12:56:50;22.60;1.00
4673;DHT22;61885;53.560;9.940;2022-09-03T12:59:22;22.40;1.00
4673;DHT22;61885;53.560;9.940;2022-09-03T13:01:57;22.50;1.00
4673;DHT22;61885;53.560;9.940;2022-09-03T13:04:30;22.70;1.00
4673;DHT22;61885;53.560;9.940;2022-09-03T13:07:02;22.70;1.00
4673;DHT22;61885;53.560;9.940;2022-09-03T13:09:36;22.70;1.00
4673;DHT22;61885;53.560;9.940;2022-09-03T13:12:06;22.70;1.00
4673;DHT22;61885;53.560;9.940;2022-09-03T13:14:48;22.70;1.00
4673;DHT22;61885;53.560;9.940;2022-09-03T13:17:29;22.70;1.00
4673;DHT22;61885;53.560;9.940;2022-09-03T13:20:15;22.80;1.00
4673;DHT22;61885;53.560;9.940;2022-09-03T13:23:09;23.00;1.00
4673;DHT22;61885;53.560;9.940;2022-09-03T13:25:49;23.00;1.00
4673;DHT22;61885;53.560;9.940;2022-09-03T13:28:34;23.10;1.00
4673;DHT22;61885;53.560;9.940;2022-09-03T13:31:17;23.40;1.00
4673;DHT22;61885;53.560;9.940;2022-09-03T13:33:56;23.20;1.00
4673;DHT22;61885;53.560;9.940;2022-09-03T13:36:30;23.30;1.00
4673;DHT22;61885;53.560;9.940;2022-09-03T13:39:03;23.40;1.00
4673;DHT22;61885;53.560;9.940;2022-09-03T13:41:37;23.50;1.00
4673;DHT22;61885;53.560;9.940;2022-09-03T13:44:15;23.40;1.00
4673;DHT22;61885;53.560;9.940;2022-09-03T13:46:51;23.60;1.00
4673;DHT22;61885;53.560;9.940;2022-09-03T13:49:36;23.20;1.00
4673;DHT22;61885;53.560;9.940;2022-09-03T13:52:24;23.40;1.00
4673;DHT22;61885;53.560;9.940;2022-09-03T13:54:59;23.50;1.00
4673;DHT22;61885;53.560;9.940;2022-09-03T13:57:34;23.60;1.00
4673;DHT22;61885;53.560;9.940;2022-09-03T14:00:10;23.50;1.00
4673;DHT22;61885;53.560;9.940;2022-09-03T14:02:51;23.30;1.00
4673;DHT22;61885;53.560;9.940;2022-09-03T14:05:46;23.50;1.00
4673;DHT22;61885;53.560;9.940;2022-09-03T14:08:26;23.80;1.00
4673;DHT22;61885;53.560;9.940;2022-09-03T14:11:02;23.60;1.00
4673;DHT22;61885;53.560;9.940;2022-09-03T14:13:59;23.70;1.00
4673;DHT22;61885;53.560;9.940;2022-09-03T14:16:36;23.70;1.00
4673;DHT22;61885;53.560;9.940;2022-09-03T14:19:11;23.70;1.00
4673;DHT22;61885;53.560;9.940;2022-09-03T14:21:51;23.70;1.00
4673;DHT22;61885;53.560;9.940;2022-09-03T14:24:25;24.00;1.00
4673;DHT22;61885;53.560;9.940;2022-09-03T14:26:57;24.10;1.00
4673;DHT22;61885;53.560;9.940;2022-09-03T14:29:31;24.00;1.00
4673;DHT22;61885;53.560;9.940;2022-09-03T14:32:23;24.00;1.00
4673;DHT22;61885;53.560;9.940;2022-09-03T14:35:10;24.40;1.00
4673;DHT22;61885;53.560;9.940;2022-09-03T14:37:58;24.10;1.00
4673;DHT22;61885;53.560;9.940;2022-09-03T14:40:40;24.30;1.00
4673;DHT22;61885;53.560;9.940;2022-09-03T14:43:22;24.40;1.00
4673;DHT22;61885;53.560;9.940;2022-09-03T14:46:12;24.90;1.00
4673;DHT22;61885;53.560;9.940;2022-09-03T14:55:12;26.00;1.00
4673;DHT22;61885;53.560;9.940;2022-09-03T15:00:52;28.60;1.00
4673;DHT22;61885;53.560;9.940;2022-09-03T15:06:36;28.30;1.00
4673;DHT22;61885;53.560;9.940;2022-09-03T15:09:17;28.80;1.00
4673;DHT22;61885;53.560;9.940;2022-09-03T15:11:54;29.00;1.00
4673;DHT22;61885;53.560;9.940;2022-09-03T15:14:28;28.90;1.00
4673;DHT22;61885;53.560;9.940;2022-09-03T15:17:00;28.50;1.00
4673;DHT22;61885;53.560;9.940;2022-09-03T15:19:46;29.60;1.00
4673;DHT22;61885;53.560;9.940;2022-09-03T15:22:30;29.50;1.00
4673;DHT22;61885;53.560;9.940;2022-09-03T15:25:13;28.80;1.00
4673;DHT22;61885;53.560;9.940;2022-09-03T15:28:06;28.40;1.00
4673;DHT22;61885;53.560;9.940;2022-09-03T15:30:44;29.30;1.00
4673;DHT22;61885;53.560;9.940;2022-09-03T15:33:22;29.50;1.00
4673;DHT22;61885;53.560;9.940;2022-09-03T15:36:13;29.30;1.00
4673;DHT22;61885;53.560;9.940;2022-09-03T15:38:47;28.30;1.00
4673;DHT22;61885;53.560;9.940;2022-09-03T15:41:33;29.90;1.00
4673;DHT22;61885;53.560;9.940;2022-09-03T15:44:11;31.50;1.00
4673;DHT22;61885;53.560;9.940;2022-09-03T15:46:50;31.50;1.00
4673;DHT22;61885;53.560;9.940;2022-09-03T15:49:43;30.90;1.00
4673;DHT22;61885;53.560;9.940;2022-09-03T15:52:27;31.10;1.00
4673;DHT22;61885;53.560;9.940;2022-09-03T15:55:05;29.90;1.00
4673;DHT22;61885;53.560;9.940;2022-09-03T15:57:40;29.40;1.00
4673;DHT22;61885;53.560;9.940;2022-09-03T16:00:19;30.00;1.00
4673;DHT22;61885;53.560;9.940;2022-09-03T16:02:54;30.40;1.00
4673;DHT22;61885;53.560;9.940;2022-09-03T16:05:35;30.50;1.00
4673;DHT22;61885;53.560;9.940;2022-09-03T16:08:17;28.90;1.00
4673;DHT22;61885;53.560;9.940;2022-09-03T16:10:57;29.50;1.00
4673;DHT22;61885;53.560;9.940;2022-09-03T16:13:42;29.60;1.00
4673;DHT22;61885;53.560;9.940;2022-09-03T16:16:20;30.00;1.00
4673;DHT22;61885;53.560;9.940;2022-09-03T16:18:59;29.60;1.00
4673;DHT22;61885;53.560;9.940;2022-09-03T16:21:35;29.90;1.00
4673;DHT22;61885;53.560;9.940;2022-09-03T16:24:14;29.90;1.00
4673;DHT22;61885;53.560;9.940;2022-09-03T16:26:50;29.30;1.00
4673;DHT22;61885;53.560;9.940;2022-09-03T16:29:25;28.50;1.00
4673;DHT22;61885;53.560;9.940;2022-09-03T16:32:11;28.70;1.00
4673;DHT22;61885;53.560;9.940;2022-09-03T16:34:51;28.70;1.00
4673;DHT22;61885;53.560;9.940;2022-09-03T16:37:29;29.70;1.00
4673;DHT22;61885;53.560;9.940;2022-09-03T16:40:11;27.90;1.00
4673;DHT22;61885;53.560;9.940;2022-09-03T16:42:44;28.50;1.00
4673;DHT22;61885;53.560;9.940;2022-09-03T16:45:22;29.00;1.00
4673;DHT22;61885;53.560;9.940;2022-09-03T16:48:14;29.60;1.00
4673;DHT22;61885;53.560;9.940;2022-09-03T16:50:59;30.20;1.00
4673;DHT22;61885;53.560;9.940;2022-09-03T16:53:43;30.30;1.00
4673;DHT22;61885;53.560;9.940;2022-09-03T16:56:30;28.90;1.00
4673;DHT22;61885;53.560;9.940;2022-09-03T16:59:09;28.10;1.00
4673;DHT22;61885;53.560;9.940;2022-09-03T17:01:54;27.60;1.00
4673;DHT22;61885;53.560;9.940;2022-09-03T17:04:48;28.60;1.00
4673;DHT22;61885;53.560;9.940;2022-09-03T17:07:35;28.80;1.00
4673;DHT22;61885;53.560;9.940;2022-09-03T17:10:17;28.70;1.00
4673;DHT22;61885;53.560;9.940;2022-09-03T17:12:58;28.30;1.00
4673;DHT22;61885;53.560;9.940;2022-09-03T17:15:36;27.60;1.00
4673;DHT22;61885;53.560;9.940;2022-09-03T17:18:15;27.20;1.00
4673;DHT22;61885;53.560;9.940;2022-09-03T17:20:59;26.50;1.00
4673;DHT22;61885;53.560;9.940;2022-09-03T17:23:47;25.80;1.00